Terminal Aerodrome Forecast
Issued by NWS

Home | Current Version | Previous Version | Text Only | Print | Product List | Glossary On
Versions: 1 2 3 4 5 6 7 8 9 10 11 12 13 14 15 16 17 18 19 20 21 22 23 24 25 26 27 28 29
000
FTUS44 KLIX 211700
TAFHDC
TAF
KHDC 211728Z 2118/2218 04006KT P6SM SCT035
     FM220000 VRB03KT P6SM SKC
     FM220900 00000KT 4SM BR SCT250
     FM221400 02003KT P6SM SCT045
      TEMPO 2216/2218 BKN045=

USA.gov is the U.S. government's official web portal to all federal, state and local government web resources and services.